Time;durP1;ratioP1;P1;durP2;ratioP2;P2;SDS_P1;SDS_P2;PMS_P1;PMS_P2;Temp;Humidity;BMP_temperature;BMP_pressure;BME280_temperature;BME280_humidity;BME280_pressure;Samples;Min_cycle;Max_cycle;Signal;HPM_P1;HPM_P2
2023/10/11 00:01:29;;;;;;;3.42;1.55;;;;;;;3.52;77.65;99814.53;5082490;28;20101;-40
2023/10/11 00:03:58;;;;;;;2.42;1.40;;;;;;;3.57;77.69;99813.66;5054451;28;20060;-36
2023/10/11 00:06:26;;;;;;;5.03;1.70;;;;;;;3.65;77.56;99834.22;5088858;28;20585;-36
2023/10/11 00:08:53;;;;;;;3.35;1.98;;;;;;;3.50;77.12;99800.88;5082045;28;20082;-37
2023/10/11 00:11:24;;;;;;;4.72;2.45;;;;;;;3.71;76.88;99829.06;5069420;28;20781;-37
2023/10/11 00:13:50;;;;;;;6.13;2.10;;;;;;;3.75;76.89;99844.47;5051082;28;20048;-36
2023/10/11 00:16:17;;;;;;;3.65;1.60;;;;;;;3.78;76.50;99838.44;5051825;28;20396;-37
2023/10/11 00:18:43;;;;;;;2.58;1.40;;;;;;;3.77;76.18;99835.00;5068961;28;20131;-36
2023/10/11 00:21:16;;;;;;;3.63;1.50;;;;;;;3.77;75.86;99839.28;5069248;28;20047;-36
2023/10/11 00:23:48;;;;;;;2.78;1.35;;;;;;;3.82;76.36;99840.97;5067606;28;20097;-36
2023/10/11 00:26:14;;;;;;;3.22;1.88;;;;;;;3.81;75.91;99841.88;5069240;28;20048;-37
2023/10/11 00:28:49;;;;;;;3.45;1.40;;;;;;;3.76;75.60;99841.03;5084210;28;20040;-36
2023/10/11 00:31:17;;;;;;;2.75;1.33;;;;;;;3.78;75.55;99841.84;5078633;28;20033;-35
2023/10/11 00:33:43;;;;;;;2.25;1.40;;;;;;;3.78;75.58;99849.56;5051091;28;20052;-35
2023/10/11 00:36:09;;;;;;;1.98;1.20;;;;;;;3.65;75.11;99827.38;5069292;28;20037;-36
2023/10/11 00:38:47;;;;;;;2.88;1.38;;;;;;;3.76;75.46;99853.03;5067756;28;20086;-35
2023/10/11 00:41:17;;;;;;;2.38;1.40;;;;;;;3.84;75.12;99861.56;5067592;28;20040;-36
2023/10/11 00:43:51;;;;;;;3.53;1.40;;;;;;;3.87;75.37;99856.41;5068524;28;20040;-46
2023/10/11 00:46:19;;;;;;;2.13;1.30;;;;;;;3.91;74.75;99860.69;5065640;28;20036;-36
2023/10/11 00:48:55;;;;;;;1.88;1.30;;;;;;;3.67;74.90;99820.47;5066506;28;20535;-36
2023/10/11 00:51:24;;;;;;;1.98;1.42;;;;;;;3.90;74.65;99858.97;5065655;28;20098;-36
2023/10/11 00:53:51;;;;;;;2.45;1.35;;;;;;;3.88;74.38;99855.53;5065440;28;20474;-36
2023/10/11 00:56:26;;;;;;;3.80;1.38;;;;;;;3.77;74.40;99855.56;5065200;28;20136;-38
2023/10/11 00:58:55;;;;;;;6.13;1.55;;;;;;;3.67;74.15;99859.03;5066026;28;20039;-36
2023/10/11 01:01:22;;;;;;;3.45;1.63;;;;;;;3.52;74.60;99861.66;5069417;28;20039;-36
2023/10/11 01:03:49;;;;;;;2.40;1.52;;;;;;;3.42;74.74;99873.69;5088676;28;20100;-36
2023/10/11 01:06:16;;;;;;;2.72;1.48;;;;;;;3.31;75.38;99875.44;5050307;28;20041;-36
2023/10/11 01:08:42;;;;;;;5.50;1.63;;;;;;;3.19;75.86;99878.00;5066828;28;20043;-37
2023/10/11 01:11:14;;;;;;;2.97;1.50;;;;;;;2.84;76.22;99844.69;5066960;28;20056;-37
2023/10/11 01:13:42;;;;;;;2.78;1.60;;;;;;;2.93;76.78;99884.91;5034158;28;20093;-35
2023/10/11 01:16:10;;;;;;;3.47;1.60;;;;;;;2.82;77.33;99889.19;5070814;28;20036;-38
2023/10/11 01:18:40;;;;;;;2.85;1.95;;;;;;;2.70;77.79;99891.75;5070393;28;20281;-37
2023/10/11 01:21:07;;;;;;;3.05;1.40;;;;;;;2.61;78.22;99900.31;5069312;28;20037;-36
2023/10/11 01:23:34;;;;;;;3.60;1.45;;;;;;;2.55;78.76;99910.56;5050320;28;20044;-36
2023/10/11 01:26:08;;;;;;;3.45;1.77;;;;;;;2.46;78.95;99910.56;5049746;28;20424;-40
2023/10/11 01:28:38;;;;;;;3.35;1.50;;;;;;;2.40;79.23;99913.09;5061780;28;20036;-36
2023/10/11 01:31:11;;;;;;;2.42;1.40;;;;;;;2.25;79.69;99903.63;5067688;28;20040;-42
2023/10/11 01:33:42;;;;;;;2.97;1.38;;;;;;;2.27;80.34;99919.91;5066973;28;20036;-37
2023/10/11 01:36:18;;;;;;;2.53;1.60;;;;;;;2.20;80.65;99910.47;5050910;28;20093;-37
2023/10/11 01:38:46;;;;;;;3.20;1.60;;;;;;;1.92;80.73;99881.34;5050468;28;20068;-37
2023/10/11 01:41:14;;;;;;;2.75;1.40;;;;;;;2.11;81.06;99931.81;5067679;28;20090;-38
2023/10/11 01:43:40;;;;;;;3.20;1.58;;;;;;;2.08;81.28;99928.41;5068170;28;20502;-37
2023/10/11 01:46:06;;;;;;;4.03;1.55;;;;;;;2.04;81.78;99931.81;5068038;28;20072;-36
2023/10/11 01:48:32;;;;;;;2.80;1.40;;;;;;;2.00;81.90;99925.78;5066754;28;20121;-37
2023/10/11 01:51:05;;;;;;;2.78;1.35;;;;;;;1.95;82.11;99932.63;5066786;28;20072;-37
2023/10/11 01:53:31;;;;;;;2.17;1.42;;;;;;;1.90;82.41;99930.88;5066659;28;20121;-36
2023/10/11 01:55:57;;;;;;;2.55;1.52;;;;;;;1.66;82.46;99904.31;5065790;28;20040;-37
2023/10/11 01:58:23;;;;;;;3.10;1.63;;;;;;;1.88;82.76;99932.59;5057736;28;20040;-37
2023/10/11 02:00:49;;;;;;;2.95;1.83;;;;;;;1.80;83.10;99929.97;5066508;28;20048;-36
2023/10/11 02:03:15;;;;;;;4.82;2.40;;;;;;;1.82;83.04;99935.97;5050073;28;20043;-36
2023/10/11 02:05:43;;;;;;;8.45;4.85;;;;;;;1.78;83.13;99931.66;5069637;28;20336;-40
2023/10/11 02:08:13;;;;;;;9.77;5.15;;;;;;;1.75;83.16;99930.81;5068220;28;20077;-36
2023/10/11 02:10:39;;;;;;;11.85;6.13;;;;;;;1.67;83.22;99920.53;5057004;28;20092;-36
2023/10/11 02:13:09;;;;;;;11.13;6.50;;;;;;;1.69;83.12;99932.50;5087876;28;20044;-36
2023/10/11 02:15:37;;;;;;;9.30;6.00;;;;;;;1.44;82.99;99894.78;5070395;28;20040;-36
2023/10/11 02:18:08;;;;;;;11.40;6.68;;;;;;;1.65;83.13;99935.03;5088006;28;20047;-35
2023/10/11 02:20:35;;;;;;;9.15;3.83;;;;;;;1.59;83.30;99932.44;5052999;28;20059;-35
2023/10/11 02:23:01;;;;;;;8.45;3.55;;;;;;;1.36;83.17;99921.22;5090678;28;20434;-36
2023/10/11 02:25:27;;;;;;;4.88;2.10;;;;;;;1.49;83.12;99943.47;5071427;28;20095;-37
2023/10/11 02:27:54;;;;;;;6.47;2.38;;;;;;;1.45;83.27;99941.75;5080202;28;20097;-37
2023/10/11 02:30:24;;;;;;;7.75;2.00;;;;;;;1.41;83.12;99951.13;5073698;28;20085;-36
2023/10/11 02:32:52;;;;;;;5.25;2.38;;;;;;;1.38;83.21;99948.53;5073321;28;20040;-45
2023/10/11 02:35:19;;;;;;;3.45;1.88;;;;;;;1.37;83.62;99964.72;5073736;28;20085;-36
2023/10/11 02:37:46;;;;;;;6.18;2.20;;;;;;;1.12;83.64;99927.00;5073485;28;20036;-36
2023/10/11 02:40:23;;;;;;;3.92;1.75;;;;;;;1.24;83.82;99958.69;5091759;28;20040;-36
2023/10/11 02:42:50;;;;;;;3.75;1.98;;;;;;;0.81;83.96;99903.72;5071293;28;20461;-35
2023/10/11 02:45:19;;;;;;;4.35;2.22;;;;;;;1.16;84.34;99973.13;5069880;28;20146;-36
2023/10/11 02:47:46;;;;;;;3.17;1.65;;;;;;;1.09;84.55;99979.06;5069902;28;20070;-36
2023/10/11 02:50:12;;;;;;;4.72;1.65;;;;;;;1.08;84.41;99979.03;5053395;28;20404;-36
2023/10/11 02:52:39;;;;;;;3.95;1.85;;;;;;;1.05;84.88;99981.53;5070832;28;20036;-35
2023/10/11 02:55:21;;;;;;;4.18;1.90;;;;;;;1.07;85.05;99983.28;5052700;28;20032;-36
2023/10/11 02:57:57;;;;;;;4.85;1.85;;;;;;;0.61;84.81;99912.06;5053780;28;20051;-36
2023/10/11 03:00:23;;;;;;;2.95;1.65;;;;;;;0.99;85.51;99976.41;5064579;28;20047;-36
2023/10/11 03:02:54;;;;;;;4.07;1.70;;;;;;;0.92;85.79;99982.31;5069160;28;20093;-37
2023/10/11 03:05:28;;;;;;;3.90;1.95;;;;;;;0.90;86.32;99984.84;5072591;28;20054;-36
2023/10/11 03:08:13;;;;;;;4.18;2.15;;;;;;;0.85;86.48;99983.94;5073362;28;20044;-37
2023/10/11 03:10:43;;;;;;;5.70;2.30;;;;;;;0.80;87.36;99986.47;5073060;28;20040;-36
2023/10/11 03:13:12;;;;;;;3.45;1.85;;;;;;;0.84;87.28;99995.00;5087817;28;20411;-37
2023/10/11 03:15:38;;;;;;;4.57;1.80;;;;;;;0.74;87.31;99983.84;5074499;28;20032;-36
2023/10/11 03:18:06;;;;;;;3.47;1.77;;;;;;;0.68;87.78;99968.41;5089035;28;20036;-38
2023/10/11 03:20:39;;;;;;;3.50;2.13;;;;;;;0.81;87.49;99983.06;5086537;28;20036;-38
2023/10/11 03:23:10;;;;;;;5.13;2.13;;;;;;;0.83;87.74;99985.63;5087223;28;20071;-36
2023/10/11 03:25:38;;;;;;;5.97;1.90;;;;;;;0.89;88.08;99995.09;5086091;28;20071;-36
2023/10/11 03:28:05;;;;;;;7.07;2.13;;;;;;;0.86;87.95;99993.34;5068753;28;20110;-36
2023/10/11 03:30:35;;;;;;;3.40;2.20;;;;;;;0.90;87.60;99992.50;5087418;28;20084;-36
2023/10/11 03:33:06;;;;;;;3.38;1.88;;;;;;;0.86;87.98;99995.91;5086106;28;20040;-36
2023/10/11 03:35:35;;;;;;;5.43;2.25;;;;;;;0.90;88.04;100001.88;5081430;28;20066;-36
2023/10/11 03:38:01;;;;;;;3.72;2.28;;;;;;;0.88;88.10;99999.34;5087253;28;20785;-36
2023/10/11 03:40:54;;;;;;;4.88;2.35;;;;;;;0.83;88.13;100006.97;5068373;28;20044;-38
2023/10/11 03:43:21;;;;;;;4.32;2.45;;;;;;;0.82;87.95;99999.28;5082979;28;20439;-37
2023/10/11 03:45:49;;;;;;;4.57;2.20;;;;;;;0.85;88.31;99991.63;5084759;28;20036;-36
2023/10/11 03:48:28;;;;;;;11.80;2.67;;;;;;;0.96;88.33;100007.06;5087809;28;20130;-37
2023/10/11 03:50:57;;;;;;;5.10;2.55;;;;;;;0.97;88.55;99994.28;5086757;28;20298;-36
2023/10/11 03:53:24;;;;;;;6.38;3.47;;;;;;;0.88;88.15;99995.91;5084727;28;20092;-35
2023/10/11 03:55:50;;;;;;;9.40;3.75;;;;;;;0.80;88.11;100001.81;5089654;28;20093;-35
2023/10/11 03:58:33;;;;;;;7.93;4.18;;;;;;;0.73;88.65;99997.47;5076701;28;20040;-36
2023/10/11 04:01:43;;;;;;;9.65;4.45;;;;;;;0.67;88.82;100002.53;5067956;28;20036;-36
2023/10/11 04:03:49;;;;;;;9.60;5.03;;;;;;;0.68;89.46;100001.69;5061815;28;20121;-36
2023/10/11 04:06:15;;;;;;;11.85;5.60;;;;;;;0.68;89.65;100006.78;5077562;28;20499;-37
2023/10/11 04:08:43;;;;;;;15.88;6.78;;;;;;;0.67;89.52;100002.53;5088754;28;20055;-36
2023/10/11 04:11:19;;;;;;;11.02;5.20;;;;;;;0.67;89.94;100007.66;5082680;28;20516;-36
2023/10/11 04:13:46;;;;;;;12.63;6.13;;;;;;;0.68;89.98;99996.56;5068045;28;20404;-36
2023/10/11 04:16:14;;;;;;;10.02;5.18;;;;;;;0.68;89.93;100004.22;5069418;28;20039;-37
2023/10/11 04:18:40;;;;;;;12.73;5.75;;;;;;;0.69;89.77;100012.78;5069445;28;20062;-38
2023/10/11 04:23:39;;;;;;;12.38;6.15;;;;;;;0.65;90.00;99991.41;5069204;28;20071;-38
2023/10/11 04:26:21;;;;;;;16.98;6.13;;;;;;;0.78;89.91;100005.22;5062040;28;20047;-36
2023/10/11 04:28:47;;;;;;;19.83;8.15;;;;;;;0.87;89.97;100015.53;5085647;28;20052;-37
2023/10/11 04:31:30;;;;;;;16.45;7.53;;;;;;;0.97;89.93;100006.22;5088331;28;20056;-37
2023/10/11 04:33:59;;;;;;;10.38;5.32;;;;;;;1.07;89.71;100014.00;5088252;28;20047;-36
2023/10/11 04:36:28;;;;;;;12.30;5.63;;;;;;;1.13;89.65;100016.63;5072745;28;20470;-35
2023/10/11 04:39:03;;;;;;;16.27;6.30;;;;;;;1.13;89.17;100021.75;5069092;28;20044;-37
2023/10/11 04:41:37;;;;;;;9.55;3.80;;;;;;;1.11;89.12;100017.44;5067305;28;20048;-38
2023/10/11 04:44:13;;;;;;;22.52;6.68;;;;;;;1.15;89.03;100019.22;5067700;28;20051;-36
2023/10/11 04:46:44;;;;;;;9.45;3.22;;;;;;;1.19;88.90;100015.84;5069001;28;20033;-36
2023/10/11 04:49:21;;;;;;;9.40;4.45;;;;;;;1.34;88.60;100015.94;5068618;28;20048;-41
2023/10/11 04:51:47;;;;;;;7.07;2.90;;;;;;;1.45;88.10;100019.47;5053053;28;20604;-37
2023/10/11 04:54:14;;;;;;;7.85;3.30;;;;;;;1.43;87.40;100022.84;5067279;28;20044;-37
2023/10/11 04:59:20;;;;;;;6.75;1.98;;;;;;;1.34;87.29;100017.66;5075815;28;20040;-38
2023/10/11 05:04:14;;;;;;;5.30;1.80;;;;;;;1.43;86.66;100015.16;5087324;28;20058;-36
2023/10/11 05:06:42;;;;;;;3.20;2.17;;;;;;;1.49;86.57;100017.78;5081596;28;20044;-37
2023/10/11 05:19:56;;;;;;;6.47;2.95;;;;;;;2.25;83.50;99954.13;5067029;28;20048;-37
2023/10/11 05:23:11;;;;;;;4.47;1.92;;;;;;;2.77;81.86;100009.88;5067117;28;20044;-37
2023/10/11 05:28:07;;;;;;;6.05;1.90;;;;;;;3.73;77.27;100015.00;5074975;28;20493;-37
2023/10/11 05:30:37;;;;;;;30.25;9.70;;;;;;;4.26;76.73;100013.16;5086859;28;20051;-37
2023/10/11 05:52:25;;;;;;;47.15;17.42;;;;;;;8.50;60.33;99998.53;5072017;28;20036;-36
2023/10/11 05:54:53;;;;;;;6.25;2.22;;;;;;;9.17;57.71;100002.19;5066819;28;20043;-37
2023/10/11 05:57:23;;;;;;;4.57;2.10;;;;;;;9.44;56.03;99995.50;5070362;28;20048;-37
2023/10/11 05:59:49;;;;;;;6.43;2.80;;;;;;;9.92;55.32;100008.13;5054231;28;20036;-36
2023/10/11 06:02:18;;;;;;;3.40;1.95;;;;;;;9.72;53.03;100004.31;5037541;28;20067;-38
2023/10/11 06:04:46;;;;;;;7.88;3.58;;;;;;;9.52;52.75;100003.09;5075209;28;20051;-37
2023/10/11 06:07:13;;;;;;;8.55;3.60;;;;;;;9.46;53.64;99998.06;5087049;28;20042;-36
2023/10/11 06:09:43;;;;;;;13.77;3.38;;;;;;;9.79;52.49;99998.03;5050404;28;20538;-35
2023/10/11 06:12:22;;;;;;;6.18;2.45;;;;;;;9.74;52.11;99997.31;5089737;28;20032;-35
2023/10/11 06:14:52;;;;;;;4.28;2.20;;;;;;;10.10;51.31;100000.66;5086195;28;20413;-36
2023/10/11 06:17:21;;;;;;;4.82;1.58;;;;;;;10.51;50.37;100011.69;5090833;28;20046;-35
2023/10/11 06:19:54;;;;;;;;;;;;;;;10.48;49.83;100014.38;5092038;28;20355;-35
2023/10/11 06:22:28;;;;;;;3.75;1.58;;;;;;;10.31;49.94;100008.81;5091115;28;20016;-36
2023/10/11 06:24:58;;;;;;;2.65;1.40;;;;;;;10.09;51.05;100011.97;5073280;28;20048;-36
2023/10/11 06:30:10;;;;;;;5.75;1.35;;;;;;;10.98;49.64;100005.09;5069556;28;20047;-37
2023/10/11 06:32:36;;;;;;;4.00;1.83;;;;;;;10.83;49.39;100021.16;5076109;28;20041;-37
2023/10/11 06:35:05;;;;;;;2.10;1.50;;;;;;;11.11;48.72;100019.41;5086014;28;20043;-36
2023/10/11 06:37:35;;;;;;;2.05;1.40;;;;;;;11.47;47.40;100000.00;5070539;28;20040;-36
2023/10/11 06:42:31;;;;;;;4.53;1.70;;;;;;;11.52;46.77;100025.03;5088056;28;19916;-37
2023/10/11 06:44:59;;;;;;;5.18;1.83;;;;;;;12.26;46.42;100018.16;5089549;28;20527;-38
2023/10/11 06:47:33;;;;;;;6.88;1.60;;;;;;;13.11;45.33;100014.06;5088664;28;20036;-37
2023/10/11 06:50:10;;;;;;;7.57;2.00;;;;;;;13.75;43.98;100014.09;5088412;28;20040;-38
2023/10/11 06:52:43;;;;;;;4.53;2.03;;;;;;;13.14;43.34;99982.63;5084611;28;20088;-38
2023/10/11 06:55:18;;;;;;;5.53;1.85;;;;;;;13.12;43.48;100010.59;5086730;28;20174;-37
2023/10/11 06:57:56;;;;;;;4.15;1.42;;;;;;;12.84;43.61;100002.94;5083182;28;20136;-37
2023/10/11 07:00:36;;;;;;;2.00;1.50;;;;;;;12.78;43.83;100008.38;5076314;28;20078;-38
2023/10/11 07:05:48;;;;;;;3.63;1.80;;;;;;;13.90;42.57;100014.31;5077273;28;20612;-37
2023/10/11 07:08:18;;;;;;;6.43;2.03;;;;;;;14.13;42.21;100015.09;5085729;28;20040;-37
2023/10/11 07:10:45;;;;;;;3.90;2.08;;;;;;;13.83;42.20;100012.84;5089439;28;20093;-36
2023/10/11 07:13:13;;;;;;;6.05;2.10;;;;;;;13.31;42.70;100006.31;5085444;28;20046;-37
2023/10/11 07:15:44;;;;;;;6.75;2.20;;;;;;;13.81;42.23;100008.63;5070667;28;20086;-37
2023/10/11 07:18:11;;;;;;;3.72;2.03;;;;;;;14.23;41.16;100003.31;5089402;28;20065;-38
2023/10/11 07:20:49;;;;;;;5.95;1.70;;;;;;;13.97;41.15;100009.66;5084272;28;20060;-38
2023/10/11 07:23:20;;;;;;;4.70;2.40;;;;;;;14.18;41.17;100011.38;5067970;28;20041;-37
2023/10/11 07:26:23;;;;;;;3.80;2.22;;;;;;;14.60;40.51;100002.53;5089998;28;20040;-38
2023/10/11 07:28:51;;;;;;;4.78;1.90;;;;;;;16.04;39.09;100013.84;5084915;28;20060;-37
2023/10/11 07:31:34;;;;;;;4.18;2.40;;;;;;;15.84;38.32;100004.38;5087956;28;20054;-37
2023/10/11 07:34:10;;;;;;;5.28;2.40;;;;;;;15.59;38.43;100001.28;5085922;28;20044;-41
2023/10/11 07:36:37;;;;;;;4.05;2.20;;;;;;;15.35;38.23;100002.44;5070122;28;20059;-38
2023/10/11 07:41:51;;;;;;;4.60;2.08;;;;;;;15.75;38.02;99998.75;5081353;28;20040;-37
2023/10/11 07:44:18;;;;;;;6.13;2.72;;;;;;;16.39;37.24;100006.75;5078076;28;20458;-38
2023/10/11 07:46:48;;;;;;;5.85;2.30;;;;;;;16.50;36.84;100015.75;5081084;28;20040;-38
2023/10/11 07:49:38;;;;;;;3.50;1.85;;;;;;;15.43;37.60;100009.03;5068077;28;20139;-38
2023/10/11 07:52:02;;;;;;;3.58;2.10;;;;;;;15.90;37.86;100001.44;5078286;28;20039;-37
2023/10/11 07:54:28;;;;;;;3.35;1.88;;;;;;;16.26;37.24;100013.56;5079171;28;20140;-37
2023/10/11 07:56:57;;;;;;;3.42;1.70;;;;;;;15.78;37.47;99978.47;5073997;28;20067;-37
2023/10/11 07:59:28;;;;;;;3.90;2.15;;;;;;;16.19;37.09;100009.56;5047894;28;20052;-43
2023/10/11 08:01:56;;;;;;;3.30;1.73;;;;;;;15.83;36.86;100005.28;5089690;28;20588;-37
2023/10/11 08:04:27;;;;;;;4.72;1.48;;;;;;;15.43;37.22;100000.31;5082659;28;20597;-37
2023/10/11 08:07:06;;;;;;;3.10;1.45;;;;;;;14.89;37.96;100004.66;5080605;28;20036;-37
2023/10/11 08:09:45;;;;;;;3.13;1.40;;;;;;;14.88;38.13;100008.19;5068530;28;20047;-36
2023/10/11 08:12:13;;;;;;;3.03;1.65;;;;;;;14.50;38.74;99989.00;5082035;28;20044;-37
2023/10/11 08:14:44;;;;;;;2.50;1.23;;;;;;;15.21;38.27;100000.50;5084991;28;20092;-36
2023/10/11 08:17:15;;;;;;;4.10;1.23;;;;;;;15.45;37.28;99991.44;5087852;28;20035;-38
2023/10/11 08:19:44;;;;;;;4.40;1.63;;;;;;;15.43;37.83;100002.94;5081952;28;20143;-37
2023/10/11 08:22:15;;;;;;;4.65;1.58;;;;;;;14.87;37.77;99996.00;5054449;28;20443;-37
2023/10/11 08:24:46;;;;;;;2.05;1.30;;;;;;;14.78;38.02;99999.06;5088308;28;20143;-36
2023/10/11 08:27:13;;;;;;;1.30;0.88;;;;;;;14.59;37.81;99953.75;5070647;28;20400;-36
2023/10/11 08:29:42;;;;;;;1.60;1.00;;;;;;;14.71;37.32;100001.09;5082960;28;20048;-39
2023/10/11 08:32:13;;;;;;;4.43;0.90;;;;;;;14.72;37.24;99991.50;5081094;28;20040;-37
2023/10/11 08:34:50;;;;;;;1.20;0.90;;;;;;;14.56;37.23;99946.00;5083704;28;20051;-36
2023/10/11 08:37:17;;;;;;;1.63;0.95;;;;;;;15.24;36.73;99982.84;5065204;28;20040;-37
2023/10/11 08:39:46;;;;;;;2.85;0.90;;;;;;;15.97;35.37;99973.94;5082185;28;20044;-37
2023/10/11 08:42:16;;;;;;;2.63;0.98;;;;;;;16.47;34.73;99971.31;5082528;28;20041;-39
2023/10/11 08:44:46;;;;;;;3.85;1.20;;;;;;;17.54;33.77;99971.41;5064760;28;20047;-37
2023/10/11 08:47:13;;;;;;;3.35;1.10;;;;;;;17.13;32.98;99933.53;5085795;28;20040;-37
2023/10/11 08:49:49;;;;;;;2.35;1.00;;;;;;;17.00;33.35;99962.28;5082390;28;20125;-37
2023/10/11 08:52:28;;;;;;;3.80;1.27;;;;;;;17.77;32.48;99962.19;5067783;28;20085;-38
2023/10/11 08:54:54;;;;;;;;;;;;;;;17.99;31.92;99981.03;5081316;28;20056;-38
2023/10/11 08:57:25;;;;;;;1.40;1.08;;;;;;;16.97;31.80;99956.34;5067587;28;19931;-36
2023/10/11 08:59:56;;;;;;;1.00;0.70;;;;;;;17.10;31.87;99931.09;5069769;28;20036;-37
2023/10/11 09:02:33;;;;;;;2.42;1.20;;;;;;;17.09;32.21;99964.38;5069812;28;20773;-37
2023/10/11 09:05:28;;;;;;;3.58;1.40;;;;;;;17.26;31.76;99937.16;5066921;28;20032;-37
2023/10/11 09:07:56;;;;;;;2.50;1.00;;;;;;;17.47;31.00;99950.84;5060039;28;20048;-37
2023/10/11 09:10:26;;;;;;;1.05;0.75;;;;;;;17.04;31.74;99949.81;5065092;28;20044;-36
2023/10/11 09:12:56;;;;;;;0.65;0.60;;;;;;;16.45;31.53;99946.06;5073574;28;20424;-37
2023/10/11 09:15:34;;;;;;;1.35;0.80;;;;;;;16.12;31.97;99942.63;5068202;28;20032;-37
2023/10/11 09:18:12;;;;;;;6.03;1.20;;;;;;;16.68;31.47;99963.22;5068238;28;20068;-38
2023/10/11 09:20:42;;;;;;;2.05;0.90;;;;;;;15.84;32.01;99962.41;5068207;28;20048;-36
2023/10/11 09:23:11;;;;;;;4.65;0.95;;;;;;;15.14;32.95;99917.91;5068472;28;20049;-36
2023/10/11 09:25:59;;;;;;;0.85;0.55;;;;;;;15.19;32.49;99894.94;5061976;28;20036;-37
2023/10/11 09:28:33;;;;;;;1.58;1.00;;;;;;;16.09;32.00;99922.63;5084702;28;20036;-37
2023/10/11 09:31:11;;;;;;;3.25;1.02;;;;;;;17.21;30.48;99931.31;5080977;28;20050;-36
2023/10/11 09:33:45;;;;;;;2.50;1.10;;;;;;;17.11;29.66;99894.22;5085956;28;20036;-35
2023/10/11 09:36:12;;;;;;;3.15;0.90;;;;;;;17.68;29.46;99925.94;5068773;28;20044;-38
2023/10/11 09:38:41;;;;;;;2.72;1.00;;;;;;;16.96;29.72;99900.31;5088195;28;20044;-36
2023/10/11 09:41:07;;;;;;;;;;;;;;;16.26;30.36;99906.84;5087781;28;20043;-36
2023/10/11 09:43:44;;;;;;;3.33;1.10;;;;;;;15.96;30.87;99900.63;5081672;28;19916;-35
2023/10/11 09:46:11;;;;;;;1.80;1.10;;;;;;;15.97;30.96;99881.31;5063527;28;20536;-35
2023/10/11 09:48:39;;;;;;;1.92;0.95;;;;;;;16.23;31.34;99890.41;5081929;28;20613;-35
2023/10/11 09:51:13;;;;;;;1.30;1.00;;;;;;;16.66;30.24;99883.69;5085221;28;20072;-35
2023/10/11 09:53:49;;;;;;;1.77;1.00;;;;;;;16.01;31.06;99881.09;5085261;28;20415;-34
2023/10/11 09:56:35;;;;;;;1.25;0.73;;;;;;;15.60;31.17;99872.75;5086308;28;20040;-35
2023/10/11 09:59:34;;;;;;;4.20;0.63;;;;;;;15.45;30.84;99868.28;5083926;28;20523;-35
2023/10/11 10:02:07;;;;;;;2.08;1.13;;;;;;;15.60;30.43;99864.06;5078693;28;20062;-34
2023/10/11 10:05:04;;;;;;;1.27;0.80;;;;;;;15.37;30.34;99869.63;5079346;28;20129;-34
2023/10/11 10:10:06;;;;;;;2.45;1.30;;;;;;;14.37;31.32;99857.09;5083270;28;20133;-35
2023/10/11 10:12:40;;;;;;;1.20;0.80;;;;;;;14.39;31.65;99861.31;5085975;28;20503;-36
2023/10/11 10:15:20;;;;;;;2.85;1.00;;;;;;;14.15;31.79;99830.19;5083201;28;20089;-36
2023/10/11 10:18:04;;;;;;;1.60;0.98;;;;;;;14.72;31.40;99853.63;5083379;28;21150;-36
2023/10/11 10:20:43;;;;;;;1.33;0.80;;;;;;;15.22;30.86;99832.81;5082410;28;20048;-35
2023/10/11 10:23:14;;;;;;;1.55;0.85;;;;;;;15.47;30.67;99842.00;5084942;28;20058;-36
2023/10/11 10:26:11;;;;;;;1.48;0.85;;;;;;;15.15;31.09;99865.47;5061670;28;20089;-35
2023/10/11 10:28:36;;;;;;;1.92;0.95;;;;;;;15.07;30.73;99848.44;5067605;28;20048;-35
2023/10/11 10:31:17;;;;;;;1.67;0.82;;;;;;;15.33;31.01;99853.22;5075934;28;20095;-35
2023/10/11 10:33:50;;;;;;;3.70;0.90;;;;;;;15.36;30.67;99821.59;5084624;28;20629;-34
2023/10/11 10:36:20;;;;;;;1.23;0.73;;;;;;;15.14;30.78;99852.44;5082398;28;20122;-35
2023/10/11 10:41:39;;;;;;;3.97;0.90;;;;;;;14.36;31.65;99827.47;5073844;28;20052;-37
2023/10/11 10:44:08;;;;;;;1.42;0.90;;;;;;;14.12;32.25;99828.59;5082987;28;20040;-34
2023/10/11 10:46:37;;;;;;;3.70;1.02;;;;;;;14.29;32.43;99814.69;5083845;28;20135;-34
2023/10/11 10:49:03;;;;;;;2.97;1.20;;;;;;;14.44;32.60;99829.72;5086391;28;20069;-35
2023/10/11 10:51:36;;;;;;;3.47;1.10;;;;;;;14.01;33.13;99828.25;5089694;28;20523;-35
2023/10/11 10:54:14;;;;;;;3.30;1.02;;;;;;;13.76;33.76;99832.88;5089171;28;20040;-37
2023/10/11 10:56:45;;;;;;;2.78;1.70;;;;;;;14.10;33.73;99830.41;5086600;28;20583;-35
2023/10/11 10:59:14;;;;;;;1.98;1.20;;;;;;;14.01;33.72;99825.63;5087610;28;20526;-36
2023/10/11 11:01:44;;;;;;;6.18;1.27;;;;;;;13.43;34.50;99780.38;5087659;28;20075;-34
2023/10/11 11:04:12;;;;;;;2.03;1.10;;;;;;;13.21;34.88;99811.78;5067017;28;20505;-34
2023/10/11 11:06:38;;;;;;;2.80;1.35;;;;;;;12.97;35.25;99794.53;5082743;28;20032;-35
2023/10/11 11:09:13;;;;;;;1.67;1.10;;;;;;;12.83;34.99;99736.84;5081140;28;20650;-33
2023/10/11 11:11:39;;;;;;;4.13;1.30;;;;;;;13.04;35.50;99802.03;5088610;28;20067;-34
2023/10/11 11:14:09;;;;;;;4.10;1.15;;;;;;;12.82;35.28;99805.63;5085822;28;20070;-36
2023/10/11 11:16:39;;;;;;;2.67;1.45;;;;;;;12.57;35.62;99774.47;5090566;28;20044;-38
2023/10/11 11:19:25;;;;;;;4.97;2.25;;;;;;;13.24;35.06;99803.00;5090985;28;20231;-36
2023/10/11 11:22:11;;;;;;;3.35;1.85;;;;;;;13.27;34.86;99761.06;5074058;28;20498;-36
2023/10/11 11:24:41;;;;;;;5.45;2.50;;;;;;;13.38;34.79;99798.00;5085303;28;20043;-35
2023/10/11 11:27:18;;;;;;;2.88;1.50;;;;;;;12.59;35.71;99799.59;5087288;28;20048;-36
2023/10/11 11:29:47;;;;;;;4.15;1.48;;;;;;;12.10;36.41;99794.59;5082561;28;20084;-35
2023/10/11 11:32:16;;;;;;;3.42;1.20;;;;;;;12.15;36.54;99793.53;5077560;28;20040;-35
2023/10/11 11:35:10;;;;;;;4.97;1.52;;;;;;;12.47;36.23;99773.13;5088297;28;20036;-38
2023/10/11 11:37:40;;;;;;;3.47;1.08;;;;;;;12.69;35.83;99782.63;5088146;28;20506;-34
2023/10/11 11:40:24;;;;;;;3.58;1.30;;;;;;;12.38;36.05;99784.78;5086337;28;20040;-35
2023/10/11 11:42:50;;;;;;;1.13;0.73;;;;;;;11.75;36.95;99790.75;5084403;28;20052;-35
2023/10/11 11:45:18;;;;;;;2.95;1.48;;;;;;;11.02;37.59;99756.94;5085539;28;20036;-34
2023/10/11 11:47:55;;;;;;;2.05;1.20;;;;;;;11.08;38.40;99779.28;5055279;28;20542;-35
2023/10/11 11:50:27;;;;;;;2.97;1.13;;;;;;;10.56;38.34;99716.91;5081608;28;20048;-35
2023/10/11 11:52:57;;;;;;;2.13;1.20;;;;;;;10.63;39.05;99738.31;5087089;28;20075;-35
2023/10/11 11:55:23;;;;;;;4.20;1.40;;;;;;;10.44;39.16;99726.84;5087025;28;20039;-35
2023/10/11 11:57:50;;;;;;;2.42;1.25;;;;;;;10.85;39.15;99761.84;5068757;28;20048;-35
2023/10/11 12:02:54;;;;;;;3.00;1.40;;;;;;;10.82;39.65;99756.78;5085648;28;20045;-35
2023/10/11 12:05:21;;;;;;;6.03;1.65;;;;;;;10.71;39.25;99756.28;5086831;28;20146;-35
2023/10/11 12:07:51;;;;;;;9.35;1.73;;;;;;;10.88;40.00;99760.00;5088163;28;20088;-34
2023/10/11 12:10:23;;;;;;;7.75;2.42;;;;;;;10.95;39.66;99771.88;5086467;28;20043;-35
2023/10/11 12:12:54;;;;;;;7.75;1.70;;;;;;;10.37;40.21;99759.13;5069778;28;20795;-35
2023/10/11 12:15:20;;;;;;;2.30;1.02;;;;;;;10.01;40.89;99753.31;5083143;28;20036;-35
2023/10/11 12:17:53;;;;;;;2.75;1.00;;;;;;;9.49;41.62;99715.94;5088387;28;20086;-34
2023/10/11 12:20:22;;;;;;;8.25;1.85;;;;;;;9.21;42.52;99712.47;5070655;28;20040;-35
2023/10/11 12:22:50;;;;;;;2.38;1.30;;;;;;;9.13;42.47;99732.56;5069758;28;20353;-34
2023/10/11 12:25:24;;;;;;;4.13;1.27;;;;;;;9.13;43.04;99735.16;5086381;28;20093;-35
2023/10/11 12:27:51;;;;;;;4.13;1.20;;;;;;;9.02;43.57;99724.22;5087884;28;20051;-34
2023/10/11 12:30:20;;;;;;;3.28;1.73;;;;;;;9.03;43.43;99711.22;5087740;28;20114;-35
2023/10/11 12:32:46;;;;;;;6.85;1.25;;;;;;;8.98;43.99;99712.25;5086896;28;20044;-34
2023/10/11 12:35:13;;;;;;;3.25;1.23;;;;;;;9.05;44.23;99712.03;5087588;28;20036;-34
2023/10/11 12:37:42;;;;;;;3.05;1.20;;;;;;;9.04;43.99;99691.31;5089215;28;20096;-35
2023/10/11 12:40:22;;;;;;;5.53;1.30;;;;;;;9.34;44.12;99708.59;5089390;28;20075;-35
2023/10/11 12:42:48;;;;;;;2.20;1.33;;;;;;;9.51;43.41;99708.97;5087768;28;20047;-34
2023/10/11 12:45:18;;;;;;;2.25;0.77;;;;;;;9.37;43.49;99712.88;5068477;28;20071;-35
2023/10/11 12:47:44;;;;;;;2.08;0.80;;;;;;;9.04;44.31;99702.56;5070489;28;20055;-34
2023/10/11 12:50:10;;;;;;;3.15;1.42;;;;;;;8.92;44.60;99695.09;5089260;28;20101;-36
2023/10/11 12:52:38;;;;;;;2.70;1.23;;;;;;;8.88;44.92;99678.78;5087953;28;20047;-35
2023/10/11 12:55:07;;;;;;;2.20;0.90;;;;;;;8.97;44.60;99682.88;5070893;28;20101;-35